Time;durP1;ratioP1;P1;durP2;ratioP2;P2;SDS_P1;SDS_P2;PMS_P1;PMS_P2;Temp;Humidity;BMP_temperature;BMP_pressure;BME280_temperature;BME280_humidity;BME280_pressure;Samples;Min_cycle;Max_cycle;Signal;HPM_P1;HPM_P2
2023/05/27 00:00:11;;;;;;;12.13;3.93;;;;;;;;;;4958367;28;20478;-69
2023/05/27 00:02:37;;;;;;;13.33;3.90;;;;;;;;;;4958236;28;20435;-68
2023/05/27 00:05:03;;;;;;;11.77;5.43;;;;;;;;;;4958792;28;20965;-68
2023/05/27 00:07:30;;;;;;;7.80;3.30;;;;;;;;;;4954074;28;20454;-68
2023/05/27 00:09:56;;;;;;;11.47;4.50;;;;;;;;;;4958744;28;20431;-69
2023/05/27 00:12:22;;;;;;;8.87;4.27;;;;;;;;;;4958134;28;20489;-68
2023/05/27 00:14:48;;;;;;;12.93;3.70;;;;;;;;;;4958355;28;20508;-68
2023/05/27 00:17:14;;;;;;;10.80;3.40;;;;;;;;;;4958430;28;20481;-68
2023/05/27 00:19:42;;;;;;;8.13;3.23;;;;;;;;;;4957975;28;20955;-69
2023/05/27 00:22:08;;;;;;;9.00;3.17;;;;;;;;;;4957959;28;20465;-68
2023/05/27 00:24:39;;;;;;;12.17;3.43;;;;;;;;;;4958816;28;20922;-68
2023/05/27 00:27:05;;;;;;;11.70;5.07;;;;;;;;;;4958582;28;20999;-68
2023/05/27 00:29:31;;;;;;;7.33;3.37;;;;;;;;;;4958236;28;20426;-68
2023/05/27 00:31:57;;;;;;;14.83;3.93;;;;;;;;;;4957514;28;20481;-68
2023/05/27 00:34:23;;;;;;;7.77;3.60;;;;;;;;;;4960805;28;20442;-69
2023/05/27 00:36:49;;;;;;;11.40;3.43;;;;;;;;;;4961441;28;20794;-68
2023/05/27 00:39:16;;;;;;;7.10;3.13;;;;;;;;;;4961963;28;20457;-68
2023/05/27 00:41:43;;;;;;;6.17;2.93;;;;;;;;;;4961149;28;20446;-68
2023/05/27 00:44:09;;;;;;;7.40;3.73;;;;;;;;;;4960310;28;21066;-68
2023/05/27 00:46:35;;;;;;;14.80;3.80;;;;;;;;;;4961388;28;20448;-69
2023/05/27 00:49:01;;;;;;;10.90;4.13;;;;;;;;;;4961359;28;20458;-68
2023/05/27 00:51:27;;;;;;;9.43;3.93;;;;;;;;;;4960686;28;20866;-69
2023/05/27 00:53:53;;;;;;;11.13;4.20;;;;;;;;;;4960916;28;20458;-68
2023/05/27 00:56:20;;;;;;;6.17;3.17;;;;;;;;;;4959296;28;20543;-68
2023/05/27 00:58:46;;;;;;;7.37;3.40;;;;;;;;;;4960415;28;20528;-68
2023/05/27 01:01:12;;;;;;;3.23;3.00;;;;;;;;;;4960838;28;20930;-68
2023/05/27 01:03:41;;;;;;;12.73;4.13;;;;;;;;;;4960615;28;20814;-68
2023/05/27 01:06:12;;;;;;;10.50;3.77;;;;;;;;;;4961194;28;20445;-68
2023/05/27 01:08:43;;;;;;;9.07;2.97;;;;;;;;;;4961608;28;20430;-68
2023/05/27 01:11:10;;;;;;;5.97;3.60;;;;;;;;;;4961241;28;20478;-69
2023/05/27 01:13:40;;;;;;;8.93;3.23;;;;;;;;;;4960770;28;20565;-68
2023/05/27 01:16:10;;;;;;;13.77;3.73;;;;;;;;;;4961219;28;20466;-68
2023/05/27 01:18:36;;;;;;;10.47;4.17;;;;;;;;;;4960105;28;20486;-69
2023/05/27 01:21:10;;;;;;;13.17;3.23;;;;;;;;;;4960836;28;20874;-68
2023/05/27 01:23:39;;;;;;;9.87;3.70;;;;;;;;;;4961221;28;20572;-68
2023/05/27 01:26:05;;;;;;;13.17;3.93;;;;;;;;;;4961329;28;20461;-68
2023/05/27 01:28:31;;;;;;;10.93;5.23;;;;;;;;;;4959551;28;20449;-68
2023/05/27 01:31:05;;;;;;;9.80;4.13;;;;;;;;;;4960410;28;20431;-68
2023/05/27 01:33:34;;;;;;;12.03;3.40;;;;;;;;;;4961046;28;20974;-68
2023/05/27 01:36:05;;;;;;;11.27;4.17;;;;;;;;;;4960578;28;20446;-68
2023/05/27 01:38:33;;;;;;;11.70;4.00;;;;;;;;;;4960994;28;20922;-69
2023/05/27 01:40:59;;;;;;;9.83;5.20;;;;;;;;;;4960586;28;20473;-68
2023/05/27 01:43:25;;;;;;;9.53;4.40;;;;;;;;;;4959842;28;20864;-69
2023/05/27 01:45:51;;;;;;;15.93;3.80;;;;;;;;;;4960429;28;20942;-69
2023/05/27 01:48:19;;;;;;;4.40;4.00;;;;;;;;;;4961020;28;20449;-68
2023/05/27 01:50:45;;;;;;;10.63;4.00;;;;;;;;;;4960381;28;20431;-68
2023/05/27 01:53:12;;;;;;;5.97;3.80;;;;;;;;;;4960476;28;20477;-68
2023/05/27 01:55:38;;;;;;;8.33;2.87;;;;;;;;;;4960934;28;20438;-68
2023/05/27 01:58:04;;;;;;;9.67;3.73;;;;;;;;;;4960169;28;20441;-68
2023/05/27 02:00:30;;;;;;;10.50;4.57;;;;;;;;;;4959681;28;20518;-68
2023/05/27 02:02:56;;;;;;;7.23;3.47;;;;;;;;;;4960076;28;20910;-68
2023/05/27 02:05:22;;;;;;;21.70;4.00;;;;;;;;;;4960195;28;20521;-68
2023/05/27 02:07:48;;;;;;;9.93;4.80;;;;;;;;;;4959806;28;20926;-68
2023/05/27 02:10:15;;;;;;;23.70;4.27;;;;;;;;;;4960334;28;20473;-68
2023/05/27 02:12:41;;;;;;;10.43;3.77;;;;;;;;;;4959441;28;20492;-68
2023/05/27 02:15:08;;;;;;;9.53;3.90;;;;;;;;;;4959872;28;20419;-68
2023/05/27 02:17:33;;;;;;;11.20;4.00;;;;;;;;;;4959935;28;20569;-68
2023/05/27 02:19:59;;;;;;;8.47;3.47;;;;;;;;;;4960064;28;20513;-69
2023/05/27 02:22:25;;;;;;;10.20;3.70;;;;;;;;;;4959373;28;20525;-68
2023/05/27 02:24:51;;;;;;;7.70;3.57;;;;;;;;;;4960789;28;20818;-68
2023/05/27 02:27:17;;;;;;;4.80;3.27;;;;;;;;;;4959988;28;20894;-68
2023/05/27 02:29:43;;;;;;;5.43;4.13;;;;;;;;;;4959247;28;20421;-68
2023/05/27 02:32:10;;;;;;;18.83;3.87;;;;;;;;;;4959360;28;20489;-68
2023/05/27 02:34:37;;;;;;;6.10;2.90;;;;;;;;;;4960120;28;20434;-69
2023/05/27 02:37:04;;;;;;;17.67;4.57;;;;;;;;;;4959681;28;20437;-68
2023/05/27 02:39:30;;;;;;;11.03;3.90;;;;;;;;;;4959661;28;20493;-68
2023/05/27 02:41:56;;;;;;;7.10;3.83;;;;;;;;;;4959104;28;20425;-68
2023/05/27 02:44:22;;;;;;;7.67;2.73;;;;;;;;;;4959364;28;20517;-68
2023/05/27 02:46:47;;;;;;;20.63;3.10;;;;;;;;;;4959575;28;20457;-68
2023/05/27 02:49:14;;;;;;;10.83;3.43;;;;;;;;;;4959760;28;20430;-68
2023/05/27 02:51:40;;;;;;;8.33;4.07;;;;;;;;;;4958943;28;20446;-68
2023/05/27 02:54:06;;;;;;;8.23;3.50;;;;;;;;;;4959670;28;20454;-68
2023/05/27 02:56:32;;;;;;;11.90;4.50;;;;;;;;;;4958996;28;20418;-68
2023/05/27 02:58:58;;;;;;;7.70;3.50;;;;;;;;;;4958821;28;21528;-68
2023/05/27 03:01:24;;;;;;;7.43;3.57;;;;;;;;;;4958773;28;20460;-68
2023/05/27 03:03:50;;;;;;;6.33;3.60;;;;;;;;;;4958939;28;20456;-68
2023/05/27 03:06:16;;;;;;;8.63;4.73;;;;;;;;;;4959404;28;20800;-68
2023/05/27 03:08:42;;;;;;;9.33;2.97;;;;;;;;;;4959039;28;20509;-68
2023/05/27 03:11:08;;;;;;;5.90;3.60;;;;;;;;;;4959210;28;21718;-68
2023/05/27 03:13:34;;;;;;;5.60;3.87;;;;;;;;;;4958957;28;22110;-69
2023/05/27 03:16:00;;;;;;;12.13;3.70;;;;;;;;;;4958484;28;20488;-68
2023/05/27 03:18:26;;;;;;;4.43;3.07;;;;;;;;;;4958206;28;20887;-68
2023/05/27 03:20:52;;;;;;;5.37;3.20;;;;;;;;;;4958977;28;20516;-68
2023/05/27 03:23:18;;;;;;;5.37;3.10;;;;;;;;;;4958489;28;20586;-68
2023/05/27 03:25:45;;;;;;;9.10;3.70;;;;;;;;;;4957847;28;20462;-68
2023/05/27 03:28:11;;;;;;;7.67;4.00;;;;;;;;;;4958777;28;20438;-68
2023/05/27 03:30:38;;;;;;;7.30;3.00;;;;;;;;;;4958190;28;20452;-68
2023/05/27 03:33:04;;;;;;;3.17;2.90;;;;;;;;;;4958195;28;21023;-68
2023/05/27 03:35:30;;;;;;;11.70;3.70;;;;;;;;;;4958890;28;20430;-68
2023/05/27 03:37:56;;;;;;;8.80;3.43;;;;;;;;;;4958413;28;20422;-68
2023/05/27 03:40:21;;;;;;;15.20;3.60;;;;;;;;;;4958808;28;20446;-68
2023/05/27 03:42:47;;;;;;;7.27;3.47;;;;;;;;;;4958637;28;20500;-68
2023/05/27 03:45:13;;;;;;;7.80;3.57;;;;;;;;;;4957909;28;20415;-68
2023/05/27 03:47:39;;;;;;;9.80;3.73;;;;;;;;;;4958816;28;20859;-68
2023/05/27 03:50:06;;;;;;;15.80;3.97;;;;;;;;;;4959185;28;20500;-68
2023/05/27 03:52:32;;;;;;;16.83;4.50;;;;;;;;;;4958062;28;20481;-69
2023/05/27 03:54:58;;;;;;;12.60;3.30;;;;;;;;;;4957862;28;20458;-68
2023/05/27 03:57:24;;;;;;;4.13;3.67;;;;;;;;;;4958053;28;20426;-68
2023/05/27 03:59:50;;;;;;;5.63;3.47;;;;;;;;;;4958010;28;20440;-68
2023/05/27 04:02:16;;;;;;;13.40;4.03;;;;;;;;;;4957867;28;20813;-68
2023/05/27 04:04:42;;;;;;;10.20;3.80;;;;;;;;;;4958643;28;20451;-68
2023/05/27 04:07:08;;;;;;;9.13;2.80;;;;;;;;;;4957889;28;20450;-68
2023/05/27 04:09:34;;;;;;;8.57;3.53;;;;;;;;;;4961150;28;20486;-69
2023/05/27 04:12:00;;;;;;;11.53;3.30;;;;;;;;;;4962439;28;20504;-68
2023/05/27 04:14:26;;;;;;;13.17;3.73;;;;;;;;;;4962298;28;20426;-68
2023/05/27 04:16:52;;;;;;;10.93;3.83;;;;;;;;;;4962276;28;20493;-68
2023/05/27 04:19:18;;;;;;;3.73;3.30;;;;;;;;;;4962446;28;20477;-69
2023/05/27 04:21:44;;;;;;;6.10;3.07;;;;;;;;;;4960693;28;20461;-68
2023/05/27 04:24:10;;;;;;;3.33;2.53;;;;;;;;;;4961173;28;20490;-68
2023/05/27 04:26:37;;;;;;;4.80;2.93;;;;;;;;;;4962472;28;20876;-68
2023/05/27 04:29:05;;;;;;;7.90;3.10;;;;;;;;;;4961599;28;20812;-68
2023/05/27 04:31:31;;;;;;;6.37;4.77;;;;;;;;;;4961168;28;20484;-68
2023/05/27 04:33:57;;;;;;;9.27;3.73;;;;;;;;;;4961400;28;20478;-69
2023/05/27 04:36:26;;;;;;;9.13;3.53;;;;;;;;;;4962481;28;20429;-69
2023/05/27 04:38:52;;;;;;;6.57;3.10;;;;;;;;;;4961714;28;20973;-68
2023/05/27 04:41:28;;;;;;;9.23;3.33;;;;;;;;;;4962440;28;20782;-69
2023/05/27 04:43:54;;;;;;;14.00;3.60;;;;;;;;;;4960894;28;20429;-69
2023/05/27 04:46:20;;;;;;;10.57;3.97;;;;;;;;;;4961152;28;20438;-69
2023/05/27 04:48:47;;;;;;;7.53;3.40;;;;;;;;;;4961501;28;20434;-69
2023/05/27 04:51:15;;;;;;;9.80;3.20;;;;;;;;;;4961057;28;20966;-69
2023/05/27 04:53:41;;;;;;;9.27;3.30;;;;;;;;;;4959365;28;21068;-69
2023/05/27 04:56:08;;;;;;;7.33;3.70;;;;;;;;;;4961104;28;20419;-69
2023/05/27 04:58:34;;;;;;;15.23;3.63;;;;;;;;;;4960629;28;20446;-69
2023/05/27 05:01:01;;;;;;;7.27;3.20;;;;;;;;;;4960590;28;20439;-69
2023/05/27 05:03:36;;;;;;;8.70;3.20;;;;;;;;;;4960269;28;21100;-69
2023/05/27 05:06:04;;;;;;;5.70;3.50;;;;;;;;;;4960972;28;20503;-69
2023/05/27 05:08:31;;;;;;;5.50;2.73;;;;;;;;;;4962198;28;21041;-69
2023/05/27 05:10:57;;;;;;;8.30;4.53;;;;;;;;;;4961353;28;20462;-70
2023/05/27 05:13:28;;;;;;;6.20;3.30;;;;;;;;;;4960464;28;20489;-70
2023/05/27 05:15:54;;;;;;;8.37;2.70;;;;;;;;;;4960333;28;20441;-68
2023/05/27 05:18:20;;;;;;;12.60;4.17;;;;;;;;;;4960276;28;20493;-69
2023/05/27 05:20:46;;;;;;;5.93;3.37;;;;;;;;;;4960325;28;20544;-69
2023/05/27 05:23:12;;;;;;;3.73;2.50;;;;;;;;;;4960043;28;20451;-69
2023/05/27 05:25:39;;;;;;;6.00;2.43;;;;;;;;;;4960651;28;20478;-69
2023/05/27 05:28:05;;;;;;;5.00;3.60;;;;;;;;;;4960472;28;20437;-69
2023/05/27 05:30:31;;;;;;;3.33;3.03;;;;;;;;;;4962185;28;20800;-69
2023/05/27 05:32:58;;;;;;;9.60;3.30;;;;;;;;;;4964450;28;20485;-69
2023/05/27 05:35:24;;;;;;;7.90;3.33;;;;;;;;;;4964711;28;20438;-69
2023/05/27 05:37:50;;;;;;;10.60;3.57;;;;;;;;;;4964633;28;20445;-68
2023/05/27 05:40:16;;;;;;;4.53;3.17;;;;;;;;;;4962370;28;20438;-69
2023/05/27 05:42:42;;;;;;;12.40;2.93;;;;;;;;;;4958932;28;20521;-69
2023/05/27 05:45:08;;;;;;;9.97;2.93;;;;;;;;;;4960857;28;20453;-69
2023/05/27 05:47:35;;;;;;;3.73;3.13;;;;;;;;;;4954487;28;20456;-70
2023/05/27 05:50:01;;;;;;;8.83;4.00;;;;;;;;;;4955173;28;20441;-68
2023/05/27 05:52:27;;;;;;;11.10;3.50;;;;;;;;;;4964284;28;20563;-69
2023/05/27 05:54:53;;;;;;;3.47;3.00;;;;;;;;;;4964695;28;20457;-68
2023/05/27 05:57:20;;;;;;;9.83;2.90;;;;;;;;;;4959431;28;20553;-69
2023/05/27 05:59:46;;;;;;;7.03;3.93;;;;;;;;;;4964789;28;20836;-69
2023/05/27 06:02:12;;;;;;;16.23;3.63;;;;;;;;;;4964453;28;20966;-69
2023/05/27 06:04:38;;;;;;;6.90;3.43;;;;;;;;;;4957013;28;21298;-69
2023/05/27 06:07:04;;;;;;;8.60;4.40;;;;;;;;;;4958807;28;20533;-69
2023/05/27 06:09:30;;;;;;;11.30;3.83;;;;;;;;;;4956035;28;21687;-68
2023/05/27 06:11:56;;;;;;;4.97;3.27;;;;;;;;;;4959871;28;20452;-69
2023/05/27 06:14:22;;;;;;;11.80;3.70;;;;;;;;;;4963788;28;20472;-69
2023/05/27 06:16:48;;;;;;;10.00;4.27;;;;;;;;;;4958543;28;20438;-69
2023/05/27 06:19:14;;;;;;;10.20;4.00;;;;;;;;;;4962359;28;20964;-70
2023/05/27 06:21:41;;;;;;;7.40;4.27;;;;;;;;;;4963704;28;20495;-69
2023/05/27 06:24:07;;;;;;;7.80;2.50;;;;;;;;;;4964013;28;20517;-69
2023/05/27 06:26:34;;;;;;;6.30;3.23;;;;;;;;;;4963927;28;20450;-69
2023/05/27 06:28:59;;;;;;;4.27;3.87;;;;;;;;;;4963104;28;20926;-69
2023/05/27 06:31:26;;;;;;;9.93;3.60;;;;;;;;;;4963358;28;21033;-69
2023/05/27 06:33:53;;;;;;;8.03;3.77;;;;;;;;;;4972985;28;20862;-68
2023/05/27 06:36:18;;;;;;;11.43;3.33;;;;;;;;;;4963842;28;21058;-68
2023/05/27 06:38:45;;;;;;;4.53;3.30;;;;;;;;;;4963242;28;20484;-69
2023/05/27 06:41:11;;;;;;;6.73;2.80;;;;;;;;;;4963693;28;20430;-69
2023/05/27 06:43:37;;;;;;;8.10;4.10;;;;;;;;;;4962188;28;20485;-69
2023/05/27 06:46:03;;;;;;;10.80;4.40;;;;;;;;;;4963483;28;20801;-69
2023/05/27 06:48:29;;;;;;;6.77;3.87;;;;;;;;;;4961778;28;20426;-69
2023/05/27 06:50:55;;;;;;;4.33;2.93;;;;;;;;;;4958648;28;20775;-69
2023/05/27 06:53:21;;;;;;;8.30;3.40;;;;;;;;;;4958957;28;21440;-68
2023/05/27 06:55:47;;;;;;;8.43;3.23;;;;;;;;;;4956700;28;20446;-69
2023/05/27 06:58:12;;;;;;;4.70;3.40;;;;;;;;;;4957979;28;20923;-68
2023/05/27 07:00:38;;;;;;;8.43;3.33;;;;;;;;;;4958987;28;20434;-69
2023/05/27 07:03:05;;;;;;;14.13;3.83;;;;;;;;;;4958449;28;20445;-63
2023/05/27 07:05:31;;;;;;;6.10;3.20;;;;;;;;;;4958512;28;20509;-69
2023/05/27 07:07:57;;;;;;;5.30;3.30;;;;;;;;;;4958829;28;20568;-70
2023/05/27 07:10:23;;;;;;;9.17;3.77;;;;;;;;;;4958028;28;20439;-68
2023/05/27 07:12:49;;;;;;;5.10;2.87;;;;;;;;;;4958396;28;20488;-69
2023/05/27 07:15:15;;;;;;;6.40;3.50;;;;;;;;;;4958589;28;20481;-69
2023/05/27 07:17:41;;;;;;;6.07;3.20;;;;;;;;;;4958450;28;20484;-70
2023/05/27 07:20:07;;;;;;;7.20;3.87;;;;;;;;;;4958798;28;20451;-69
2023/05/27 07:22:33;;;;;;;5.90;3.17;;;;;;;;;;4958602;28;20926;-69
2023/05/27 07:24:59;;;;;;;8.90;3.10;;;;;;;;;;4958381;28;20439;-68
2023/05/27 07:27:25;;;;;;;8.37;3.43;;;;;;;;;;4958706;28;20475;-68
2023/05/27 07:29:51;;;;;;;7.77;3.40;;;;;;;;;;4957389;28;20505;-69
2023/05/27 07:32:17;;;;;;;3.90;2.47;;;;;;;;;;4957620;28;20477;-69
2023/05/27 07:34:43;;;;;;;14.33;3.50;;;;;;;;;;4958447;28;20422;-69
2023/05/27 07:37:09;;;;;;;7.50;3.53;;;;;;;;;;4958686;28;20432;-69
2023/05/27 07:39:35;;;;;;;8.47;4.23;;;;;;;;;;4959082;28;20476;-69
2023/05/27 07:42:01;;;;;;;7.13;3.40;;;;;;;;;;4957386;28;21022;-68
2023/05/27 07:44:27;;;;;;;4.40;3.27;;;;;;;;;;4957976;28;20434;-69
2023/05/27 07:46:54;;;;;;;6.40;2.93;;;;;;;;;;4958576;28;20490;-69
2023/05/27 07:49:20;;;;;;;7.00;3.60;;;;;;;;;;4958657;28;20423;-69
2023/05/27 07:51:46;;;;;;;13.67;3.33;;;;;;;;;;4957808;28;20454;-69
2023/05/27 07:54:12;;;;;;;10.07;3.30;;;;;;;;;;4958619;28;20446;-69
2023/05/27 07:56:38;;;;;;;12.33;3.67;;;;;;;;;;4958057;28;20857;-69
2023/05/27 07:59:05;;;;;;;8.77;4.13;;;;;;;;;;4958738;28;20438;-69
2023/05/27 08:01:32;;;;;;;11.93;4.23;;;;;;;;;;4958355;28;20438;-69
2023/05/27 08:03:58;;;;;;;5.10;3.47;;;;;;;;;;4958136;28;20445;-68
2023/05/27 08:06:25;;;;;;;10.23;3.90;;;;;;;;;;4958111;28;20439;-69
2023/05/27 08:08:50;;;;;;;15.40;3.60;;;;;;;;;;4958083;28;21784;-68
2023/05/27 08:11:16;;;;;;;11.33;3.80;;;;;;;;;;4958270;28;20426;-69
2023/05/27 08:13:42;;;;;;;5.13;4.63;;;;;;;;;;4957418;28;21002;-68
2023/05/27 08:16:09;;;;;;;5.67;4.33;;;;;;;;;;4957989;28;20458;-69
2023/05/27 08:18:36;;;;;;;15.33;4.03;;;;;;;;;;4958087;28;20497;-69
2023/05/27 08:21:01;;;;;;;3.23;2.90;;;;;;;;;;4958723;28;20439;-68
2023/05/27 08:23:27;;;;;;;8.17;3.90;;;;;;;;;;4957821;28;20504;-69
2023/05/27 08:25:53;;;;;;;10.63;3.60;;;;;;;;;;4956755;28;20445;-69
2023/05/27 08:28:20;;;;;;;5.37;2.93;;;;;;;;;;4957796;28;20488;-69
2023/05/27 08:30:47;;;;;;;5.93;3.10;;;;;;;;;;4958018;28;20550;-68
2023/05/27 08:33:13;;;;;;;11.50;3.70;;;;;;;;;;4957453;28;20576;-69
2023/05/27 08:35:39;;;;;;;3.80;3.00;;;;;;;;;;4958194;28;20510;-69
2023/05/27 08:38:05;;;;;;;5.10;3.10;;;;;;;;;;4957917;28;20434;-69
2023/05/27 08:40:31;;;;;;;3.97;3.20;;;;;;;;;;4956495;28;20433;-69
2023/05/27 08:42:57;;;;;;;13.33;4.60;;;;;;;;;;4957338;28;20896;-68
2023/05/27 08:45:23;;;;;;;4.37;3.30;;;;;;;;;;4957994;28;20487;-68
2023/05/27 08:47:52;;;;;;;9.33;3.77;;;;;;;;;;4957395;28;20430;-69
2023/05/27 08:50:18;;;;;;;7.50;3.73;;;;;;;;;;4958054;28;20414;-69
2023/05/27 08:52:48;;;;;;;4.37;3.33;;;;;;;;;;4957787;28;21543;-69
2023/05/27 08:55:16;;;;;;;3.83;3.27;;;;;;;;;;4959287;28;20454;-68
2023/05/27 08:57:47;;;;;;;6.73;4.30;;;;;;;;;;4960448;28;20439;-69
2023/05/27 09:00:14;;;;;;;11.17;4.07;;;;;;;;;;4961327;28;20469;-69
2023/05/27 09:02:41;;;;;;;8.87;4.80;;;;;;;;;;4960855;28;20521;-69
2023/05/27 09:05:08;;;;;;;8.13;3.17;;;;;;;;;;4961722;28;20426;-69
2023/05/27 09:07:34;;;;;;;13.03;3.70;;;;;;;;;;4960537;28;20422;-69
2023/05/27 09:10:00;;;;;;;15.03;4.03;;;;;;;;;;4961162;28;20954;-69
2023/05/27 09:12:26;;;;;;;10.03;4.17;;;;;;;;;;4960479;28;20500;-69
2023/05/27 09:14:54;;;;;;;8.47;3.63;;;;;;;;;;4960836;28;21029;-69
2023/05/27 09:17:19;;;;;;;6.80;3.97;;;;;;;;;;4960549;28;20469;-69
2023/05/27 09:19:46;;;;;;;9.07;3.87;;;;;;;;;;4961083;28;20448;-69
2023/05/27 09:22:30;;;;;;;7.80;3.50;;;;;;;;;;4960575;28;20442;-69
2023/05/27 09:24:57;;;;;;;5.53;3.50;;;;;;;;;;4960719;28;20976;-69
2023/05/27 09:27:30;;;;;;;11.80;3.97;;;;;;;;;;4960421;28;20996;-68
2023/05/27 09:29:56;;;;;;;6.77;3.83;;;;;;;;;;4960433;28;20434;-69
2023/05/27 09:32:30;;;;;;;6.70;3.90;;;;;;;;;;4960371;28;21009;-68
2023/05/27 09:34:57;;;;;;;13.10;3.23;;;;;;;;;;4961227;28;20425;-69
2023/05/27 09:37:31;;;;;;;6.40;3.53;;;;;;;;;;4960529;28;20489;-70
2023/05/27 09:39:57;;;;;;;4.20;3.27;;;;;;;;;;4960481;28;21266;-69
2023/05/27 09:42:23;;;;;;;5.37;3.80;;;;;;;;;;4961096;28;20427;-70
2023/05/27 09:44:50;;;;;;;7.10;3.30;;;;;;;;;;4960286;28;20785;-69
2023/05/27 09:47:20;;;;;;;5.07;4.03;;;;;;;;;;4959647;28;20430;-69
2023/05/27 09:49:46;;;;;;;6.70;4.00;;;;;;;;;;4960284;28;20802;-70
2023/05/27 09:52:13;;;;;;;4.67;3.80;;;;;;;;;;4960471;28;20474;-70
2023/05/27 09:54:40;;;;;;;9.73;4.50;;;;;;;;;;4960147;28;20449;-69
2023/05/27 09:57:07;;;;;;;9.30;3.93;;;;;;;;;;4959527;28;20433;-70
2023/05/27 09:59:33;;;;;;;7.03;3.70;;;;;;;;;;4960139;28;20430;-69
2023/05/27 10:02:02;;;;;;;10.80;4.40;;;;;;;;;;4959660;28;20431;-70
2023/05/27 10:04:29;;;;;;;13.80;4.40;;;;;;;;;;4958391;28;20437;-70
2023/05/27 10:06:55;;;;;;;10.93;6.20;;;;;;;;;;4958556;28;20442;-69
2023/05/27 10:09:22;;;;;;;9.50;4.57;;;;;;;;;;4960169;28;20996;-69
2023/05/27 10:11:49;;;;;;;18.10;4.07;;;;;;;;;;4959569;28;20433;-70
2023/05/27 10:14:17;;;;;;;8.33;3.80;;;;;;;;;;4959609;28;21166;-69
2023/05/27 10:16:53;;;;;;;7.13;3.23;;;;;;;;;;4959666;28;20431;-69
2023/05/27 10:19:19;;;;;;;8.77;3.90;;;;;;;;;;4959766;28;20433;-69
2023/05/27 10:21:45;;;;;;;6.90;4.20;;;;;;;;;;4958984;28;20517;-69
2023/05/27 10:24:12;;;;;;;4.47;3.30;;;;;;;;;;4959520;28;20872;-68
2023/05/27 10:26:44;;;;;;;13.70;4.30;;;;;;;;;;4959806;28;20915;-68
2023/05/27 10:29:15;;;;;;;7.23;3.77;;;;;;;;;;4959303;28;20500;-69
2023/05/27 10:31:48;;;;;;;14.40;4.23;;;;;;;;;;4959319;28;20947;-70
2023/05/27 10:34:14;;;;;;;6.00;4.37;;;;;;;;;;4959838;28;20469;-69
2023/05/27 10:36:41;;;;;;;5.80;3.53;;;;;;;;;;4959623;28;21125;-69
2023/05/27 10:39:13;;;;;;;10.93;3.90;;;;;;;;;;4959253;28;20444;-69
2023/05/27 10:41:40;;;;;;;13.63;4.90;;;;;;;;;;4959063;28;20427;-69
2023/05/27 10:44:06;;;;;;;9.50;4.37;;;;;;;;;;4959113;28;20783;-69
2023/05/27 10:46:42;;;;;;;13.93;5.10;;;;;;;;;;4959325;28;20912;-69
2023/05/27 10:49:11;;;;;;;13.57;4.50;;;;;;;;;;4959081;28;20433;-70
2023/05/27 10:51:37;;;;;;;11.93;4.83;;;;;;;;;;4959057;28;20849;-69
2023/05/27 10:54:05;;;;;;;13.60;3.73;;;;;;;;;;4959295;28;21187;-69
2023/05/27 10:56:31;;;;;;;13.00;3.97;;;;;;;;;;4959697;28;20430;-69
2023/05/27 10:58:57;;;;;;;12.67;3.97;;;;;;;;;;4958423;28;20914;-70
2023/05/27 11:01:24;;;;;;;8.77;4.40;;;;;;;;;;4958745;28;20583;-69
2023/05/27 11:03:50;;;;;;;13.37;4.87;;;;;;;;;;4958884;28;20518;-69
2023/05/27 11:06:16;;;;;;;3.87;3.57;;;;;;;;;;4959138;28;21008;-69
2023/05/27 11:08:42;;;;;;;14.90;3.90;;;;;;;;;;4957463;28;20771;-69
2023/05/27 11:11:09;;;;;;;14.70;4.00;;;;;;;;;;4959035;28;20657;-69
2023/05/27 11:13:42;;;;;;;11.23;4.00;;;;;;;;;;4957982;28;20481;-69
2023/05/27 11:16:09;;;;;;;13.13;3.87;;;;;;;;;;4958889;28;20943;-69
2023/05/27 11:18:36;;;;;;;15.40;10.37;;;;;;;;;;4957642;28;20520;-69
2023/05/27 11:21:05;;;;;;;6.80;3.73;;;;;;;;;;4958965;28;20437;-68
2023/05/27 11:23:34;;;;;;;9.73;4.20;;;;;;;;;;4958413;28;21389;-69
2023/05/27 11:26:01;;;;;;;6.07;3.80;;;;;;;;;;4958790;28;20488;-69
2023/05/27 11:28:27;;;;;;;4.07;2.70;;;;;;;;;;4953971;28;20438;-69
2023/05/27 11:30:58;;;;;;;7.63;3.73;;;;;;;;;;4958843;28;20794;-69
2023/05/27 11:33:31;;;;;;;9.13;4.97;;;;;;;;;;4958302;28;20493;-69
2023/05/27 11:36:04;;;;;;;19.53;5.00;;;;;;;;;;4958738;28;20467;-69
2023/05/27 11:38:30;;;;;;;8.87;4.43;;;;;;;;;;4958423;28;20441;-69
2023/05/27 11:41:06;;;;;;;9.23;4.30;;;;;;;;;;4958050;28;20422;-69
2023/05/27 11:43:33;;;;;;;8.07;3.30;;;;;;;;;;4957800;28;20798;-69
2023/05/27 11:46:05;;;;;;;9.00;4.37;;;;;;;;;;4958492;28;20470;-69
2023/05/27 11:48:31;;;;;;;5.60;4.70;;;;;;;;;;4958068;28;20521;-69
2023/05/27 11:50:57;;;;;;;11.93;5.63;;;;;;;;;;4958459;28;20461;-69
2023/05/27 11:53:23;;;;;;;4.63;4.20;;;;;;;;;;4958049;28;20979;-69
2023/05/27 11:55:49;;;;;;;6.23;3.97;;;;;;;;;;4957270;28;20438;-69
2023/05/27 11:58:15;;;;;;;9.33;3.47;;;;;;;;;;4957741;28;20536;-69
2023/05/27 12:00:41;;;;;;;4.13;3.77;;;;;;;;;;4958075;28;21925;-69
2023/05/27 12:03:07;;;;;;;6.53;3.80;;;;;;;;;;4958151;28;20479;-69
2023/05/27 12:05:33;;;;;;;10.50;4.50;;;;;;;;;;4958513;28;20436;-69
2023/05/27 12:07:59;;;;;;;9.10;4.30;;;;;;;;;;4958284;28;20445;-68
2023/05/27 12:10:25;;;;;;;8.63;3.90;;;;;;;;;;4958304;28;20418;-69
2023/05/27 12:12:51;;;;;;;11.03;4.23;;;;;;;;;;4957701;28;21230;-69
2023/05/27 12:15:17;;;;;;;4.90;4.10;;;;;;;;;;4959028;28;20805;-69
2023/05/27 12:17:42;;;;;;;6.10;4.10;;;;;;;;;;4957891;28;20552;-69
2023/05/27 12:20:10;;;;;;;9.10;3.60;;;;;;;;;;4958193;28;20520;-69
2023/05/27 12:22:35;;;;;;;6.20;4.53;;;;;;;;;;4957877;28;20477;-68
2023/05/27 12:25:01;;;;;;;8.13;4.00;;;;;;;;;;4956988;28;20975;-69
2023/05/27 12:27:28;;;;;;;7.93;4.07;;;;;;;;;;4957721;28;20441;-68
2023/05/27 12:29:54;;;;;;;5.40;3.97;;;;;;;;;;4959279;28;20441;-68
2023/05/27 12:32:20;;;;;;;9.47;4.53;;;;;;;;;;4961384;28;20492;-69
2023/05/27 12:34:46;;;;;;;14.90;3.90;;;;;;;;;;4961983;28;20450;-69
2023/05/27 12:37:12;;;;;;;6.77;4.00;;;;;;;;;;4961640;28;20443;-69
2023/05/27 12:39:38;;;;;;;5.30;4.17;;;;;;;;;;4961586;28;20429;-69
2023/05/27 12:42:05;;;;;;;9.83;4.50;;;;;;;;;;4961311;28;20430;-69
2023/05/27 12:44:31;;;;;;;5.40;3.80;;;;;;;;;;4960283;28;20441;-70
2023/05/27 12:46:57;;;;;;;7.53;4.07;;;;;;;;;;4961621;28;20528;-69
2023/05/27 12:49:23;;;;;;;5.40;3.80;;;;;;;;;;4961300;28;20444;-70
2023/05/27 12:51:49;;;;;;;4.03;3.63;;;;;;;;;;4961287;28;20557;-69
2023/05/27 12:54:15;;;;;;;8.60;4.57;;;;;;;;;;4961342;28;21069;-69
2023/05/27 12:56:41;;;;;;;4.93;4.20;;;;;;;;;;4960190;28;20430;-69
2023/05/27 12:59:07;;;;;;;14.87;5.20;;;;;;;;;;4960650;28;20442;-68
2023/05/27 13:01:33;;;;;;;10.40;3.70;;;;;;;;;;4960846;28;20460;-69
2023/05/27 13:03:59;;;;;;;11.80;4.40;;;;;;;;;;4959970;28;20421;-69
2023/05/27 13:06:25;;;;;;;4.80;4.23;;;;;;;;;;4961473;28;20482;-68
2023/05/27 13:08:51;;;;;;;17.53;4.60;;;;;;;;;;4961452;28;20949;-69
2023/05/27 13:11:17;;;;;;;6.33;4.10;;;;;;;;;;4960953;28;20438;-69
2023/05/27 13:13:43;;;;;;;5.70;3.17;;;;;;;;;;4960878;28;20490;-69
2023/05/27 13:16:09;;;;;;;7.53;3.57;;;;;;;;;;4961037;28;20461;-69
2023/05/27 13:18:36;;;;;;;5.47;4.00;;;;;;;;;;4960618;28;20482;-69
2023/05/27 13:21:03;;;;;;;5.03;4.17;;;;;;;;;;4960957;28;20422;-69
2023/05/27 13:23:29;;;;;;;8.60;3.80;;;;;;;;;;4960445;28;20481;-69
2023/05/27 13:25:55;;;;;;;11.97;4.20;;;;;;;;;;4960911;28;20431;-69
2023/05/27 13:28:21;;;;;;;11.03;3.10;;;;;;;;;;4960345;28;21154;-68
2023/05/27 13:30:47;;;;;;;10.73;4.17;;;;;;;;;;4960856;28;20429;-69
2023/05/27 13:33:13;;;;;;;14.10;5.33;;;;;;;;;;4960231;28;20490;-69
2023/05/27 13:35:39;;;;;;;9.77;4.27;;;;;;;;;;4963411;28;20472;-69
2023/05/27 13:38:06;;;;;;;4.63;4.23;;;;;;;;;;4962878;28;20560;-69
2023/05/27 13:40:32;;;;;;;7.13;4.13;;;;;;;;;;4960811;28;21820;-69
2023/05/27 13:42:58;;;;;;;9.27;3.50;;;;;;;;;;4959212;28;20462;-68
2023/05/27 13:45:24;;;;;;;4.07;3.50;;;;;;;;;;4959686;28;20450;-69
2023/05/27 13:47:50;;;;;;;6.57;5.17;;;;;;;;;;4963524;28;20580;-69
2023/05/27 13:50:16;;;;;;;5.43;4.50;;;;;;;;;;4963539;28;20807;-69
2023/05/27 13:52:42;;;;;;;8.10;4.27;;;;;;;;;;4963024;28;20489;-68
2023/05/27 13:55:09;;;;;;;6.13;4.50;;;;;;;;;;4965156;28;20441;-68
2023/05/27 13:57:35;;;;;;;8.00;4.90;;;;;;;;;;4964619;28;20437;-69
2023/05/27 14:00:01;;;;;;;9.33;5.60;;;;;;;;;;4965243;28;20437;-68
2023/05/27 14:02:27;;;;;;;6.37;3.80;;;;;;;;;;4954325;28;20446;-69
2023/05/27 14:04:53;;;;;;;8.27;2.77;;;;;;;;;;4963854;28;20452;-69
2023/05/27 14:07:19;;;;;;;4.60;4.10;;;;;;;;;;4963628;28;20481;-69
2023/05/27 14:09:45;;;;;;;5.90;4.57;;;;;;;;;;4964829;28;20430;-69
2023/05/27 14:12:11;;;;;;;8.53;4.13;;;;;;;;;;4963846;28;20437;-69
2023/05/27 14:14:37;;;;;;;4.90;4.40;;;;;;;;;;4964458;28;20442;-69
2023/05/27 14:17:03;;;;;;;4.50;4.20;;;;;;;;;;4958817;28;20426;-69
2023/05/27 14:19:29;;;;;;;6.23;3.40;;;;;;;;;;4964791;28;20684;-69
2023/05/27 14:21:55;;;;;;;15.00;4.57;;;;;;;;;;4964487;28;20521;-69
2023/05/27 14:24:21;;;;;;;4.00;3.70;;;;;;;;;;4965005;28;20462;-69
2023/05/27 14:26:47;;;;;;;4.30;3.93;;;;;;;;;;4964481;28;20576;-70
2023/05/27 14:29:13;;;;;;;7.10;4.23;;;;;;;;;;4964422;28;20433;-70
2023/05/27 14:31:39;;;;;;;9.83;4.17;;;;;;;;;;4962354;28;20458;-68
2023/05/27 14:34:05;;;;;;;5.07;3.63;;;;;;;;;;4956316;28;20584;-69